createdAt,value
2018-01-11T00:01:43.803Z,41.77
2018-01-11T00:04:11.327Z,34.47
2018-01-11T00:06:38.830Z,41.37
2018-01-11T00:09:06.350Z,34.10
2018-01-11T00:11:33.856Z,35.33
2018-01-11T00:14:02.136Z,35.30
2018-01-11T00:16:30.407Z,38.13
2018-01-11T00:18:58.694Z,28.73
2018-01-11T00:21:26.958Z,32.03
2018-01-11T00:23:55.250Z,43.23
2018-01-11T00:26:23.518Z,38.50
2018-01-11T00:28:51.815Z,33.57
2018-01-11T00:31:19.319Z,44.97
2018-01-11T00:33:48.334Z,38.63
2018-01-11T00:36:15.857Z,38.50
2018-01-11T00:38:44.130Z,34.53
2018-01-11T00:41:11.654Z,30.10
2018-01-11T00:43:39.166Z,38.97
2018-01-11T00:46:06.682Z,38.30
2018-01-11T00:48:34.185Z,34.27
2018-01-11T00:51:01.711Z,33.37
2018-01-11T00:53:29.218Z,36.03
2018-01-11T00:55:57.510Z,37.70
2018-01-11T00:58:25.782Z,37.20
2018-01-11T01:00:54.067Z,35.87
2018-01-11T01:03:21.571Z,30.40
2018-01-11T01:05:49.102Z,32.70
2018-01-11T01:08:16.610Z,29.13
2018-01-11T01:10:44.131Z,32.03
2018-01-11T01:13:11.635Z,30.83
2018-01-11T01:15:39.163Z,35.03
2018-01-11T01:18:06.671Z,25.10
2018-01-11T01:20:34.189Z,21.43
2018-01-11T01:23:01.704Z,25.80
2018-01-11T01:25:29.228Z,25.90
2018-01-11T01:27:57.498Z,32.73
2018-01-11T01:30:25.013Z,31.30
2018-01-11T01:32:52.534Z,28.60
2018-01-11T01:35:20.802Z,25.33
2018-01-11T01:37:49.094Z,26.90
2018-01-11T01:40:16.602Z,29.03
2018-01-11T01:42:44.122Z,26.63
2018-01-11T01:45:11.631Z,26.53
2018-01-11T01:47:39.154Z,30.70
2018-01-11T01:50:06.658Z,25.50
2018-01-11T01:52:34.183Z,26.47
2018-01-11T01:55:01.690Z,28.67
2018-01-11T01:57:30.000Z,29.70
2018-01-11T01:59:57.506Z,27.60
2018-01-11T02:02:25.030Z,25.70
2018-01-11T02:04:52.534Z,23.93
2018-01-11T02:07:20.826Z,22.90
2018-01-11T02:09:48.325Z,24.27
2018-01-11T02:12:16.610Z,26.00
2018-01-11T02:14:44.111Z,23.87
2018-01-11T02:17:11.646Z,25.20
2018-01-11T02:19:39.153Z,29.17
2018-01-11T02:22:06.692Z,28.93
2018-01-11T02:24:34.198Z,32.40
2018-01-11T02:27:01.705Z,29.17
2018-01-11T02:29:29.990Z,37.50
2018-01-11T02:31:57.499Z,38.97
2018-01-11T02:34:25.025Z,33.80
2018-01-11T02:36:52.536Z,28.40
2018-01-11T02:39:20.827Z,31.27
2018-01-11T02:41:48.354Z,29.97
2018-01-11T02:44:15.871Z,28.30
2018-01-11T02:46:43.382Z,25.03
2018-01-11T02:49:10.919Z,28.60
2018-01-11T02:51:39.242Z,27.70
2018-01-11T02:54:07.526Z,25.13
2018-01-11T02:56:35.030Z,25.20
2018-01-11T02:59:02.558Z,23.50
2018-01-11T03:01:30.087Z,19.27
2018-01-11T03:03:58.354Z,19.87
2018-01-11T03:06:26.642Z,25.40
2018-01-11T03:08:54.917Z,24.43
2018-01-11T03:11:23.202Z,26.60
2018-01-11T03:13:50.716Z,31.50
2018-01-11T03:16:18.234Z,26.07
2018-01-11T03:18:45.741Z,25.33
2018-01-11T03:21:13.268Z,21.50
2018-01-11T03:23:40.770Z,18.23
2018-01-11T03:26:09.066Z,17.73
2018-01-11T03:28:36.566Z,18.53
2018-01-11T03:31:04.087Z,17.37
2018-01-11T03:33:31.584Z,15.90
2018-01-11T03:35:59.107Z,19.20
2018-01-11T03:38:26.609Z,14.60
2018-01-11T03:40:54.894Z,16.83
2018-01-11T03:43:22.401Z,19.87
2018-01-11T03:45:49.914Z,14.97
2018-01-11T03:48:17.414Z,16.83
2018-01-11T03:50:44.926Z,17.43
2018-01-11T03:53:12.422Z,23.90
2018-01-11T03:55:39.935Z,18.87
2018-01-11T03:58:07.425Z,18.90
2018-01-11T04:00:35.703Z,18.57
2018-01-11T04:03:03.979Z,22.00
2018-01-11T04:05:32.262Z,16.17
2018-01-11T04:08:00.527Z,12.70
2018-01-11T04:10:28.806Z,13.07
2018-01-11T04:12:57.062Z,12.00
2018-01-11T04:15:24.574Z,13.33
2018-01-11T04:17:52.078Z,16.07
2018-01-11T04:20:19.598Z,11.30
2018-01-11T04:22:47.099Z,12.80
2018-01-11T04:25:15.387Z,12.37
2018-01-11T04:27:43.645Z,10.13
2018-01-11T04:30:11.158Z,13.13
2018-01-11T04:32:38.651Z,11.47
2018-01-11T04:35:06.171Z,17.17
2018-01-11T04:37:33.667Z,16.10
2018-01-11T04:40:01.179Z,21.53
2018-01-11T04:42:28.680Z,18.70
2018-01-11T04:44:56.198Z,19.80
2018-01-11T04:47:23.694Z,18.27
2018-01-11T04:49:51.214Z,15.83
2018-01-11T04:52:18.709Z,13.63
2018-01-11T04:54:46.222Z,14.80
2018-01-11T04:57:13.714Z,11.30
2018-01-11T04:59:41.214Z,12.73
2018-01-11T05:02:09.491Z,12.23
2018-01-11T05:04:37.767Z,11.70
2018-01-11T05:07:06.042Z,9.57
2018-01-11T05:09:34.302Z,14.50
2018-01-11T05:12:01.822Z,12.43
2018-01-11T05:14:29.322Z,14.70
2018-01-11T05:16:56.833Z,14.53
2018-01-11T05:19:24.327Z,13.83
2018-01-11T05:21:51.838Z,14.30
2018-01-11T05:24:19.340Z,12.43
2018-01-11T05:26:46.863Z,12.03
2018-01-11T05:29:14.363Z,11.77
2018-01-11T05:31:41.874Z,15.17
2018-01-11T05:34:09.370Z,14.73
2018-01-11T05:36:36.896Z,16.17
2018-01-11T05:39:04.398Z,12.30
2018-01-11T05:41:31.913Z,16.80
2018-01-11T05:43:59.710Z,15.50
2018-01-11T05:46:27.223Z,15.30
2018-01-11T05:48:54.722Z,84.50
2018-01-11T05:51:22.238Z,24.33
2018-01-11T05:53:49.737Z,14.40
2018-01-11T05:56:17.263Z,13.07
2018-01-11T05:58:44.758Z,9.20
2018-01-11T06:01:12.276Z,11.13
2018-01-11T06:03:39.775Z,12.93
2018-01-11T06:06:07.283Z,12.07
2018-01-11T06:08:35.104Z,10.37
2018-01-11T06:11:02.614Z,8.53
2018-01-11T06:13:30.111Z,14.90
2018-01-11T06:15:57.622Z,7.87
2018-01-11T06:18:25.119Z,12.60
2018-01-11T06:20:52.635Z,9.43
2018-01-11T06:23:20.135Z,11.07
2018-01-11T06:25:47.651Z,14.73
2018-01-11T06:28:15.382Z,10.83
2018-01-11T06:30:43.663Z,13.17
2018-01-11T06:33:11.926Z,19.47
2018-01-11T06:35:39.448Z,53.90
2018-01-11T06:38:06.950Z,40.13
2018-01-11T06:40:35.277Z,20.10
2018-01-11T06:43:02.750Z,20.03
2018-01-11T06:45:30.261Z,16.43
2018-01-11T06:47:58.526Z,14.13
2018-01-11T06:50:26.802Z,12.67
2018-01-11T06:52:55.076Z,24.17
2018-01-11T06:55:23.367Z,12.90
2018-01-11T06:57:50.873Z,11.97
2018-01-11T07:00:18.368Z,15.90
2018-01-11T07:02:46.652Z,16.00
2018-01-11T07:05:14.910Z,18.87
2018-01-11T07:07:42.418Z,20.53
2018-01-11T07:10:09.906Z,14.43
2018-01-11T07:12:37.422Z,14.53
2018-01-11T07:15:04.923Z,18.17
2018-01-11T07:17:32.437Z,16.50
2018-01-11T07:19:59.930Z,14.17
2018-01-11T07:22:27.442Z,14.27
2018-01-11T07:24:54.980Z,12.20
2018-01-11T07:27:22.470Z,14.43
2018-01-11T07:29:50.013Z,13.30
2018-01-11T07:32:17.526Z,14.73
2018-01-11T07:34:45.039Z,14.63
2018-01-11T07:37:12.554Z,13.47
2018-01-11T07:39:40.046Z,14.17
2018-01-11T07:42:07.606Z,14.90
2018-01-11T07:44:35.104Z,16.30
2018-01-11T07:47:02.614Z,18.90
2018-01-11T07:49:30.874Z,16.13
2018-01-11T07:51:59.158Z,18.23
2018-01-11T07:54:27.454Z,16.90
2018-01-11T07:56:55.012Z,19.60
2018-01-11T07:59:22.506Z,32.50
2018-01-11T08:01:50.039Z,33.47
2018-01-11T08:04:17.538Z,30.13
2018-01-11T08:06:45.054Z,30.00
2018-01-11T08:09:12.554Z,27.60
2018-01-11T08:11:40.070Z,21.70
2018-01-11T08:14:07.576Z,20.27
2018-01-11T08:16:35.097Z,28.00
2018-01-11T08:19:02.594Z,21.77
2018-01-11T08:21:30.107Z,16.20
2018-01-11T08:23:57.650Z,20.53
2018-01-11T08:26:25.201Z,14.13
2018-01-11T08:28:53.458Z,15.70
2018-01-11T08:31:21.742Z,16.63
2018-01-11T08:33:50.014Z,19.27
2018-01-11T08:36:18.294Z,12.60
2018-01-11T08:38:46.554Z,22.03
2018-01-11T08:41:14.071Z,21.77
2018-01-11T08:43:41.569Z,26.60
2018-01-11T08:46:09.090Z,73.67
2018-01-11T08:48:36.585Z,26.30
2018-01-11T08:51:04.174Z,17.80
2018-01-11T08:53:31.745Z,19.93
2018-01-11T08:55:59.264Z,18.63
2018-01-11T08:58:26.782Z,13.77
2018-01-11T09:00:54.310Z,15.60
2018-01-11T09:03:21.822Z,11.73
2018-01-11T09:05:49.321Z,16.53
2018-01-11T09:08:16.838Z,11.40
2018-01-11T09:10:44.342Z,14.30
2018-01-11T09:13:11.902Z,17.07
2018-01-11T09:15:39.406Z,23.57
2018-01-11T09:18:06.926Z,25.27
2018-01-11T09:20:34.427Z,17.57
2018-01-11T09:23:02.039Z,18.17
2018-01-11T09:25:29.535Z,19.30
2018-01-11T09:27:57.152Z,15.07
2018-01-11T09:30:24.650Z,15.40
2018-01-11T09:32:52.196Z,12.73
2018-01-11T09:35:19.686Z,15.73
2018-01-11T09:37:47.199Z,23.03
2018-01-11T09:40:14.703Z,15.13
2018-01-11T09:42:42.303Z,12.97
2018-01-11T09:45:09.846Z,15.13
2018-01-11T09:47:37.334Z,9.10
2018-01-11T09:50:04.827Z,9.20
2018-01-11T09:52:32.342Z,12.67
2018-01-11T09:54:59.895Z,13.10
2018-01-11T09:57:27.402Z,18.53
2018-01-11T09:59:54.899Z,13.47
2018-01-11T10:02:37.601Z,18.50
2018-01-11T10:05:05.188Z,16.57
2018-01-11T10:07:32.726Z,18.27
2018-01-11T10:10:00.986Z,12.23
2018-01-11T10:12:28.517Z,14.50
2018-01-11T10:14:56.014Z,14.40
2018-01-11T10:17:24.291Z,12.33
2018-01-11T10:19:52.547Z,9.43
2018-01-11T10:22:20.883Z,10.40
2018-01-11T10:24:48.443Z,11.90
2018-01-11T10:27:15.958Z,9.40
2018-01-11T10:29:44.215Z,8.27
2018-01-11T10:32:11.731Z,11.80
2018-01-11T10:34:39.232Z,9.70
2018-01-11T10:37:06.754Z,10.10
2018-01-11T10:39:34.254Z,10.93
2018-01-11T10:42:01.766Z,9.63
2018-01-11T10:44:29.258Z,9.23
2018-01-11T10:46:56.774Z,10.57
2018-01-11T10:49:24.274Z,10.83
2018-01-11T10:51:51.778Z,9.87
2018-01-11T10:54:19.292Z,9.50
2018-01-11T10:56:46.790Z,11.13
2018-01-11T10:59:14.302Z,14.60
2018-01-11T11:01:47.487Z,10.80
2018-01-11T11:33:29.288Z,9.90
2018-01-11T11:35:56.931Z,13.47
2018-01-11T11:38:24.495Z,12.87
2018-01-11T11:40:51.990Z,16.87
2018-01-11T11:43:20.434Z,14.97
2018-01-11T11:45:47.934Z,11.53
2018-01-11T11:48:15.473Z,15.97
2018-01-11T11:50:42.966Z,15.00
2018-01-11T11:53:10.487Z,18.70
2018-01-11T11:55:37.990Z,15.33
2018-01-11T11:58:05.506Z,15.27
2018-01-11T12:00:33.770Z,18.40
2018-01-11T12:03:01.291Z,19.80
2018-01-11T12:05:28.786Z,16.67
2018-01-11T12:07:56.305Z,23.80
2018-01-11T12:10:23.806Z,30.07
2018-01-11T12:12:51.326Z,21.03
2018-01-11T12:15:18.831Z,26.33
2018-01-11T12:17:47.165Z,26.83
2018-01-11T12:20:14.642Z,24.27
2018-01-11T12:22:42.160Z,30.63
2018-01-11T12:25:09.682Z,30.67
2018-01-11T12:27:37.951Z,25.33
2018-01-11T12:30:05.466Z,31.77
2018-01-11T12:32:32.962Z,33.37
2018-01-11T12:35:00.480Z,31.33
2018-01-11T12:37:27.974Z,40.07
2018-01-11T12:39:55.496Z,43.10
2018-01-11T12:42:22.994Z,37.23
2018-01-11T12:44:50.510Z,38.50
2018-01-11T12:47:18.311Z,41.97
2018-01-11T12:49:45.833Z,40.50
2018-01-11T12:52:13.335Z,37.87
2018-01-11T12:54:40.858Z,46.87
2018-01-11T12:57:08.361Z,49.50
2018-01-11T12:59:36.645Z,47.00
2018-01-11T13:02:04.910Z,54.77
2018-01-11T13:04:32.422Z,71.30
2018-01-11T13:06:59.918Z,67.17
2018-01-11T13:09:27.434Z,77.13
2018-01-11T13:11:54.938Z,54.70
2018-01-11T13:14:23.230Z,67.10
2018-01-11T13:16:51.502Z,56.57
2018-01-11T13:19:19.787Z,60.90
2018-01-11T13:21:48.058Z,55.20
2018-01-11T13:24:16.342Z,54.73
2018-01-11T13:26:43.851Z,53.67
2018-01-11T13:29:11.372Z,55.80
2018-01-11T13:31:38.878Z,58.97
2018-01-11T13:34:06.400Z,56.97
2018-01-11T13:36:33.902Z,49.80
2018-01-11T13:39:01.422Z,66.67
2018-01-11T13:41:28.918Z,62.83
2018-01-11T13:43:56.439Z,58.73
2018-01-11T13:46:23.938Z,59.10
2018-01-11T13:48:51.528Z,58.23
2018-01-11T13:51:19.026Z,61.80
2018-01-11T13:53:46.546Z,68.03
2018-01-11T13:56:14.056Z,64.30
2018-01-11T13:58:41.575Z,78.27
2018-01-11T14:01:09.082Z,79.20
2018-01-11T14:03:36.607Z,93.07
2018-01-11T14:06:04.127Z,82.03
2018-01-11T14:08:32.396Z,84.30
2018-01-11T14:11:00.677Z,89.83
2018-01-11T14:13:28.943Z,76.90
2018-01-11T14:15:57.226Z,78.50
2018-01-11T14:18:25.836Z,82.23
2018-01-11T14:20:53.354Z,77.57
2018-01-11T14:23:21.643Z,81.70
2018-01-11T14:25:49.926Z,91.03
2018-01-11T14:28:18.190Z,79.13
2018-01-11T14:30:46.477Z,73.83
2018-01-11T14:33:14.750Z,65.60
2018-01-11T14:35:43.035Z,62.63
2018-01-11T14:38:10.541Z,75.90
2018-01-11T14:40:38.066Z,63.77
2018-01-11T14:43:05.616Z,72.87
2018-01-11T14:45:33.878Z,67.20
2018-01-11T14:48:02.146Z,65.40
2018-01-11T14:50:30.434Z,70.50
2018-01-11T14:52:57.943Z,70.27
2018-01-11T14:55:25.463Z,67.20
2018-01-11T14:57:52.967Z,67.93
2018-01-11T15:00:20.484Z,49.57
2018-01-11T15:02:47.986Z,62.60
2018-01-11T15:05:15.506Z,60.03
2018-01-11T15:07:43.015Z,66.10
2018-01-11T15:10:10.546Z,65.27
2018-01-11T15:12:38.054Z,65.00
2018-01-11T15:15:06.342Z,59.67
2018-01-11T15:17:33.843Z,69.73
2018-01-11T15:20:01.358Z,70.70
2018-01-11T15:22:28.866Z,64.07
2018-01-11T15:24:56.386Z,68.10
2018-01-11T15:27:23.890Z,64.03
2018-01-11T15:29:51.402Z,60.93
2018-01-11T15:32:18.911Z,71.67
2018-01-11T15:34:46.430Z,57.90
2018-01-11T15:37:13.930Z,55.60
2018-01-11T15:39:41.446Z,53.07
2018-01-11T15:42:08.947Z,54.33
2018-01-11T15:44:36.466Z,59.93
2018-01-11T15:47:03.966Z,66.47
2018-01-11T15:49:32.250Z,54.27
2018-01-11T15:52:00.519Z,65.97
2018-01-11T15:54:28.806Z,58.27
2018-01-11T15:56:57.075Z,77.27
2018-01-11T15:59:25.354Z,67.20
2018-01-11T16:01:53.628Z,52.97
2018-01-11T16:04:21.907Z,52.57
2018-01-11T16:06:50.174Z,39.90
2018-01-11T16:09:18.469Z,48.77
2018-01-11T16:11:46.735Z,47.27
2018-01-11T16:14:15.007Z,39.50
2018-01-11T16:16:43.294Z,35.20
2018-01-11T16:19:11.558Z,31.90
2018-01-11T16:21:39.847Z,24.20
2018-01-11T16:24:08.114Z,35.27
2018-01-11T16:26:36.395Z,27.10
2018-01-11T16:29:04.667Z,26.53
2018-01-11T16:31:32.946Z,32.27
2018-01-11T16:34:01.211Z,31.80
2018-01-11T16:36:29.493Z,28.93
2018-01-11T16:38:57.765Z,29.03
2018-01-11T16:41:26.063Z,31.70
2018-01-11T16:43:53.558Z,27.50
2018-01-11T16:46:21.074Z,31.57
2018-01-11T16:48:48.573Z,33.57
2018-01-11T16:51:16.090Z,33.67
2018-01-11T16:53:43.604Z,44.97
2018-01-11T16:56:11.126Z,29.67
2018-01-11T16:58:38.627Z,29.47
2018-01-11T17:01:06.147Z,26.50
2018-01-11T17:03:33.651Z,27.60
2018-01-11T17:06:01.166Z,24.70
2018-01-11T17:08:28.657Z,29.53
2018-01-11T17:10:56.175Z,27.90
2018-01-11T17:13:23.678Z,23.53
2018-01-11T17:15:51.193Z,26.03
2018-01-11T17:18:18.699Z,35.63
2018-01-11T17:20:46.228Z,31.50
2018-01-11T17:23:13.722Z,31.40
2018-01-11T17:25:41.238Z,31.17
2018-01-11T17:28:08.743Z,32.67
2018-01-11T17:30:37.039Z,34.07
2018-01-11T17:33:04.545Z,36.13
2018-01-11T17:35:32.065Z,39.43
2018-01-11T17:37:59.572Z,35.47
2018-01-11T17:40:27.092Z,36.30
2018-01-11T17:42:54.594Z,37.33
2018-01-11T17:45:22.106Z,35.67
2018-01-11T17:47:49.602Z,37.37
2018-01-11T17:50:17.142Z,39.07
2018-01-11T17:52:44.642Z,37.77
2018-01-11T17:55:12.911Z,39.53
2018-01-11T17:57:41.202Z,33.17
2018-01-11T18:00:09.471Z,42.30
2018-01-11T18:02:37.758Z,44.50
2018-01-11T18:05:06.026Z,41.90
2018-01-11T18:07:35.311Z,39.53
2018-01-11T18:10:03.593Z,40.90
2018-01-11T18:12:31.887Z,41.70
2018-01-11T18:14:59.391Z,40.67
2018-01-11T18:17:26.920Z,37.23
2018-01-11T18:19:54.430Z,46.73
2018-01-11T18:22:21.955Z,38.37
2018-01-11T18:24:49.459Z,40.57
2018-01-11T18:27:17.744Z,47.97
2018-01-11T18:29:46.010Z,44.83
2018-01-11T18:32:14.298Z,50.27
2018-01-11T18:34:42.558Z,46.43
2018-01-11T18:37:10.078Z,40.20
2018-01-11T18:39:37.580Z,47.27
2018-01-11T18:42:05.871Z,48.90
2018-01-11T18:44:34.140Z,48.70
2018-01-11T18:47:02.422Z,42.37
2018-01-11T18:49:30.690Z,48.07
2018-01-11T18:51:58.978Z,46.00
2018-01-11T18:54:27.247Z,61.23
2018-01-11T18:56:55.530Z,59.97
2018-01-11T18:59:23.799Z,56.90
2018-01-11T19:01:52.086Z,59.93
2018-01-11T19:04:19.590Z,45.97
2018-01-11T19:06:47.117Z,49.67
2018-01-11T19:09:14.610Z,59.57
2018-01-11T19:11:42.132Z,64.80
2018-01-11T19:14:09.626Z,54.87
2018-01-11T19:16:37.138Z,54.90
2018-01-11T19:19:05.479Z,51.90
2018-01-11T19:21:32.997Z,70.80
2018-01-11T19:24:00.495Z,57.30
2018-01-11T19:26:28.014Z,50.00
2018-01-11T19:28:55.514Z,54.37
2018-01-11T19:31:23.030Z,47.03
2018-01-11T19:33:50.530Z,62.33
2018-01-11T19:36:18.054Z,50.60
2018-01-11T19:38:45.641Z,61.27
2018-01-11T19:41:13.147Z,55.13
2018-01-11T19:43:40.670Z,62.80
2018-01-11T19:46:08.939Z,58.13
2018-01-11T19:48:36.455Z,58.80
2018-01-11T19:51:03.954Z,67.90
2018-01-11T19:53:31.474Z,75.50
2018-01-11T19:55:59.006Z,64.53
2018-01-11T19:58:26.566Z,75.43
2018-01-11T20:00:54.126Z,91.83
2018-01-11T20:03:21.642Z,81.23
2018-01-11T20:05:49.143Z,97.63
2018-01-11T20:08:16.663Z,92.83
2018-01-11T20:10:44.930Z,81.77
2018-01-11T20:13:12.454Z,89.27
2018-01-11T20:15:39.997Z,83.90
2018-01-11T20:18:07.518Z,82.20
2018-01-11T20:20:35.787Z,79.80
2018-01-11T20:23:03.385Z,97.47
2018-01-11T20:25:30.952Z,99.93
2018-01-11T20:27:58.470Z,74.53
2018-01-11T20:30:26.014Z,78.17
2018-01-11T20:32:53.582Z,80.93
2018-01-11T20:35:21.129Z,72.00
2018-01-11T20:37:48.692Z,72.43
2018-01-11T20:40:16.996Z,68.23
2018-01-11T20:42:45.316Z,75.63
2018-01-11T20:45:12.815Z,51.87
2018-01-11T20:47:40.369Z,63.53
2018-01-11T20:50:07.913Z,58.20
2018-01-11T20:52:35.427Z,70.17
2018-01-11T20:55:02.983Z,51.67
2018-01-11T20:57:30.508Z,59.47
2018-01-11T20:59:58.007Z,62.03
2018-01-11T21:02:25.575Z,64.37
2018-01-11T21:04:53.057Z,72.40
2018-01-11T21:07:20.717Z,85.27
2018-01-11T21:09:48.234Z,77.27
2018-01-11T21:12:15.793Z,60.63
2018-01-11T21:14:43.355Z,61.30
2018-01-11T21:17:10.870Z,59.67
2018-01-11T21:19:38.371Z,74.50
2018-01-11T21:22:05.891Z,82.10
2018-01-11T21:24:33.394Z,69.13
2018-01-11T21:27:00.910Z,70.13
2018-01-11T21:29:28.455Z,78.73
2018-01-11T21:31:56.004Z,63.73
2018-01-11T21:34:23.533Z,60.97
2018-01-11T21:36:51.076Z,67.27
2018-01-11T21:39:18.681Z,61.33
2018-01-11T21:41:46.184Z,62.73
2018-01-11T21:44:14.462Z,69.10
2018-01-11T21:46:42.030Z,67.23
2018-01-11T21:49:09.555Z,65.57
2018-01-11T21:51:37.150Z,68.47
2018-01-11T21:54:04.666Z,61.80
2018-01-11T21:56:32.165Z,68.70
2018-01-11T21:58:59.682Z,65.60
2018-01-11T22:01:27.185Z,66.80
2018-01-11T22:03:54.742Z,70.77
2018-01-11T22:06:22.242Z,60.60
2018-01-11T22:08:49.801Z,66.77
2018-01-11T22:11:17.344Z,66.70
2018-01-11T22:13:44.863Z,70.97
2018-01-11T22:16:13.130Z,62.23
2018-01-11T22:18:41.435Z,75.00
2018-01-11T22:21:08.933Z,68.77
2018-01-11T22:23:36.452Z,77.23
2018-01-11T22:26:03.951Z,67.60
2018-01-11T22:28:31.470Z,68.77
2018-01-11T22:30:58.968Z,73.13
2018-01-11T22:33:26.487Z,73.60
2018-01-11T22:35:54.261Z,72.83
2018-01-11T22:38:21.835Z,62.43
2018-01-11T22:40:49.387Z,69.43
2018-01-11T22:43:16.918Z,71.23
2018-01-11T22:45:44.474Z,72.40
2018-01-11T22:48:12.048Z,88.23
2018-01-11T22:50:39.585Z,68.83
2018-01-11T22:53:07.122Z,65.83
2018-01-11T22:55:34.630Z,65.20
2018-01-11T22:58:02.146Z,62.67
2018-01-11T23:00:30.443Z,74.33
2018-01-11T23:02:58.058Z,80.30
2018-01-11T23:05:25.569Z,62.13
2018-01-11T23:07:53.118Z,78.27
2018-01-11T23:10:20.618Z,84.93
2018-01-11T23:12:48.238Z,83.37
2018-01-11T23:15:15.794Z,72.23
2018-01-11T23:17:43.363Z,76.97
2018-01-11T23:20:10.918Z,80.37
2018-01-11T23:22:38.442Z,86.17
2018-01-11T23:25:05.962Z,74.73
2018-01-11T23:27:33.494Z,76.07
2018-01-11T23:30:01.015Z,77.73
2018-01-11T23:32:28.519Z,80.67
2018-01-11T23:34:56.034Z,83.07
2018-01-11T23:37:23.535Z,98.77
2018-01-11T23:39:51.050Z,83.13
2018-01-11T23:42:18.642Z,85.53
2018-01-11T23:44:46.172Z,78.07
2018-01-11T23:47:14.487Z,87.53
2018-01-11T23:49:42.034Z,95.03
2018-01-11T23:52:09.534Z,83.73
2018-01-11T23:54:37.045Z,96.37
2018-01-11T23:57:05.310Z,99.50
2018-01-11T23:59:33.606Z,96.03
